Time;durP1;ratioP1;P1;durP2;ratioP2;P2;SDS_P1;SDS_P2;PMS_P1;PMS_P2;Temp;Humidity;BMP_temperature;BMP_pressure;BME280_temperature;BME280_humidity;BME280_pressure;Samples;Min_cycle;Max_cycle;Signal;HPM_P1;HPM_P2
2022/03/16 00:02:21;;;;;;;75.18;47.95;;;;;;;10.54;89.13;100946.03;5038566;28;20100;-80
2022/03/16 00:04:51;;;;;;;77.15;48.42;;;;;;;10.56;89.44;100938.81;5041054;28;20030;-81
2022/03/16 00:07:19;;;;;;;81.18;51.15;;;;;;;10.54;88.81;100932.81;5052083;28;20030;-81
2022/03/16 00:09:47;;;;;;;77.97;50.40;;;;;;;10.57;89.26;100936.09;5039874;28;20029;-81
2022/03/16 00:12:13;;;;;;;77.70;51.55;;;;;;;10.55;89.00;100932.69;5038710;28;20037;-81
2022/03/16 00:14:40;;;;;;;77.00;50.38;;;;;;;10.53;89.52;100939.06;5037498;28;20037;-80
2022/03/16 00:17:06;;;;;;;79.40;51.80;;;;;;;10.52;89.56;100942.63;5028733;28;20463;-80
2022/03/16 00:19:33;;;;;;;74.05;49.35;;;;;;;10.54;89.00;100940.75;5037600;28;20053;-80
2022/03/16 00:22:00;;;;;;;81.15;51.78;;;;;;;10.54;89.19;100943.38;5037479;28;20025;-82
2022/03/16 00:24:26;;;;;;;82.97;53.50;;;;;;;10.52;89.15;100947.91;5037657;28;20041;-82
2022/03/16 00:26:52;;;;;;;82.18;52.20;;;;;;;10.52;89.01;100938.22;5037274;28;20021;-79
2022/03/16 00:29:19;;;;;;;78.32;52.03;;;;;;;10.54;88.93;100935.47;5038562;28;20124;-81
2022/03/16 00:31:45;;;;;;;78.95;50.08;;;;;;;10.53;88.05;100929.34;5036350;28;20059;-81
2022/03/16 00:34:10;;;;;;;74.47;49.50;;;;;;;10.55;88.41;100923.94;5036283;28;20124;-80
2022/03/16 00:36:36;;;;;;;79.82;50.40;;;;;;;10.56;88.49;100929.13;5025967;28;20021;-80
2022/03/16 00:39:03;;;;;;;70.95;47.50;;;;;;;10.59;88.71;100928.06;5026561;28;20041;-82
2022/03/16 00:41:29;;;;;;;79.50;48.97;;;;;;;10.56;89.50;100925.63;5036323;28;20029;-80
2022/03/16 00:43:55;;;;;;;77.68;47.28;;;;;;;10.54;89.61;100914.34;5035598;28;20114;-81
2022/03/16 00:46:20;;;;;;;81.18;50.90;;;;;;;10.53;90.14;100912.66;5027159;28;20466;-80
2022/03/16 00:48:46;;;;;;;77.88;50.33;;;;;;;10.52;89.92;100905.69;5035964;28;20030;-81
2022/03/16 00:51:12;;;;;;;82.40;49.35;;;;;;;10.49;90.26;100895.34;5032871;28;20108;-80
2022/03/16 00:53:39;;;;;;;82.68;52.22;;;;;;;10.48;90.86;100893.69;5036531;28;20061;-81
2022/03/16 00:56:06;;;;;;;77.95;49.78;;;;;;;10.43;91.50;100888.69;5037125;28;20048;-82
2022/03/16 00:58:33;;;;;;;81.60;50.88;;;;;;;10.43;91.10;100893.13;5035801;28;20393;-81
2022/03/16 01:01:00;;;;;;;80.72;49.50;;;;;;;10.41;91.50;100889.78;5036044;28;20473;-81
2022/03/16 01:03:27;;;;;;;75.75;48.22;;;;;;;10.37;91.52;100883.88;5035681;28;20168;-79
2022/03/16 01:05:53;;;;;;;79.00;49.42;;;;;;;10.36;91.46;100886.63;5032370;28;20041;-80
2022/03/16 01:08:21;;;;;;;79.43;49.60;;;;;;;10.34;91.12;100877.97;5021115;28;20060;-80
2022/03/16 01:10:47;;;;;;;82.95;51.40;;;;;;;10.33;91.11;100874.50;5029803;28;20049;-81
2022/03/16 01:13:12;;;;;;;81.03;49.95;;;;;;;10.32;90.94;100866.69;5033254;28;20033;-81
2022/03/16 01:15:40;;;;;;;81.97;51.03;;;;;;;10.30;90.48;100864.16;5032878;28;20048;-80
2022/03/16 01:18:05;;;;;;;74.25;49.15;;;;;;;10.33;90.39;100865.72;5033361;28;20133;-80
2022/03/16 01:20:31;;;;;;;77.45;48.60;;;;;;;10.34;90.74;100859.50;5033073;28;20041;-81
2022/03/16 01:22:56;;;;;;;81.47;48.75;;;;;;;10.36;90.87;100862.88;5033578;28;20029;-80
2022/03/16 01:25:23;;;;;;;74.25;49.22;;;;;;;10.38;90.52;100860.97;5007289;28;20485;-81
2022/03/16 01:27:48;;;;;;;82.80;49.78;;;;;;;10.38;90.77;100864.44;5032852;28;20075;-80
2022/03/16 01:30:14;;;;;;;78.18;49.95;;;;;;;10.38;90.46;100860.97;5033542;28;20357;-80
2022/03/16 01:32:40;;;;;;;78.38;49.03;;;;;;;10.33;92.31;100858.66;5033420;28;20076;-80
2022/03/16 01:35:07;;;;;;;77.43;47.60;;;;;;;10.30;92.93;100865.97;5033305;28;20073;-80
2022/03/16 01:37:33;;;;;;;76.55;48.63;;;;;;;10.27;93.29;100859.94;5023596;28;20121;-80
2022/03/16 01:40:00;;;;;;;70.90;46.97;;;;;;;10.25;92.73;100858.34;5033926;28;20048;-80
2022/03/16 01:42:25;;;;;;;77.47;48.30;;;;;;;10.23;93.27;100858.47;5033048;28;20033;-80
2022/03/16 01:44:53;;;;;;;76.38;47.03;;;;;;;10.19;93.84;100854.34;5032965;28;20029;-79
2022/03/16 01:47:21;;;;;;;70.93;45.20;;;;;;;10.17;93.73;100848.38;5024523;28;20462;-79
2022/03/16 01:49:49;;;;;;;68.35;45.13;;;;;;;10.13;94.30;100852.13;5047793;28;20033;-80
2022/03/16 01:52:21;;;;;;;68.50;43.83;;;;;;;10.11;93.82;100847.91;5053956;28;20021;-80
2022/03/16 01:54:47;;;;;;;72.22;45.13;;;;;;;10.11;93.86;100842.66;5048873;28;20111;-80
2022/03/16 01:57:17;;;;;;;70.25;45.50;;;;;;;10.07;94.16;100836.72;5038342;28;20026;-80
2022/03/16 01:59:43;;;;;;;72.97;45.25;;;;;;;10.04;94.77;100831.69;5028058;28;20033;-80
2022/03/16 02:02:10;;;;;;;73.95;45.17;;;;;;;10.02;94.33;100830.94;5018836;28;20044;-80
2022/03/16 02:04:36;;;;;;;72.25;44.85;;;;;;;10.00;94.28;100824.94;5020595;28;20025;-80
2022/03/16 02:07:03;;;;;;;73.78;45.80;;;;;;;10.01;94.69;100818.72;5033894;28;20044;-80
2022/03/16 02:09:29;;;;;;;69.30;45.70;;;;;;;10.00;94.06;100819.66;5025305;28;20057;-81
2022/03/16 02:11:55;;;;;;;71.50;44.50;;;;;;;10.01;93.68;100815.25;5050017;28;20041;-81
2022/03/16 02:14:20;;;;;;;74.82;44.10;;;;;;;10.03;94.24;100819.44;5036663;28;20064;-80
2022/03/16 02:16:47;;;;;;;71.10;43.83;;;;;;;10.04;93.71;100815.84;5035102;28;20055;-81
2022/03/16 02:19:12;;;;;;;66.40;42.70;;;;;;;10.04;93.99;100815.00;5033093;28;20201;-81
2022/03/16 02:21:40;;;;;;;72.88;45.20;;;;;;;10.05;93.69;100812.28;5031991;28;20089;-81
2022/03/16 02:24:06;;;;;;;70.43;46.05;;;;;;;10.07;93.76;100815.63;5032659;28;20045;-79
2022/03/16 02:26:32;;;;;;;72.40;45.20;;;;;;;10.09;93.56;100812.88;5032241;28;20773;-79
2022/03/16 02:28:58;;;;;;;69.63;44.80;;;;;;;10.11;93.63;100814.47;5031638;28;20075;-79
2022/03/16 02:31:24;;;;;;;71.72;44.20;;;;;;;10.11;93.98;100806.56;5032470;28;20025;-80
2022/03/16 02:33:49;;;;;;;67.15;44.33;;;;;;;10.11;94.40;100801.28;5031941;28;20037;-80
2022/03/16 02:36:15;;;;;;;68.55;44.03;;;;;;;10.10;95.08;100796.97;5032068;28;20107;-80
2022/03/16 02:38:41;;;;;;;69.13;44.42;;;;;;;10.09;94.61;100792.63;5031499;28;20056;-80
2022/03/16 02:41:06;;;;;;;66.55;42.92;;;;;;;10.12;93.96;100799.50;5032200;28;20051;-81
2022/03/16 02:43:32;;;;;;;65.13;42.72;;;;;;;10.10;93.94;100789.03;5031809;28;20041;-81
2022/03/16 02:45:57;;;;;;;68.00;42.30;;;;;;;10.11;94.08;100796.00;5032460;28;20056;-79
2022/03/16 02:48:23;;;;;;;63.50;41.53;;;;;;;10.14;93.99;100790.50;5037252;28;20028;-79
2022/03/16 02:50:49;;;;;;;65.28;42.25;;;;;;;10.15;93.95;100786.06;5045061;28;20029;-80
2022/03/16 02:53:15;;;;;;;67.30;42.33;;;;;;;10.16;94.25;100786.00;5047747;28;20038;-80
2022/03/16 02:55:45;;;;;;;65.43;42.45;;;;;;;10.20;94.38;100787.47;5040536;28;20026;-80
2022/03/16 02:58:11;;;;;;;61.80;39.05;;;;;;;10.18;94.62;100786.75;5039482;28;20017;-79
2022/03/16 03:00:37;;;;;;;61.80;42.13;;;;;;;10.19;94.74;100787.59;5023305;28;20095;-80
2022/03/16 03:03:03;;;;;;;65.32;43.47;;;;;;;10.13;95.63;100780.91;5033490;28;20037;-80
2022/03/16 03:05:29;;;;;;;65.50;43.20;;;;;;;10.10;96.09;100783.78;5027261;28;20037;-79
2022/03/16 03:07:54;;;;;;;72.13;45.67;;;;;;;10.06;96.43;100774.41;5020163;28;20176;-82
2022/03/16 03:10:20;;;;;;;67.00;43.28;;;;;;;10.04;96.24;100778.94;5032262;28;20060;-81
2022/03/16 03:12:46;;;;;;;69.60;43.55;;;;;;;10.02;96.83;100772.91;5028444;28;20075;-81
2022/03/16 03:15:13;;;;;;;67.10;45.15;;;;;;;10.03;95.97;100771.97;5032665;28;20338;-81
2022/03/16 03:17:41;;;;;;;73.03;44.05;;;;;;;10.04;96.36;100771.03;5036700;28;20044;-80
2022/03/16 03:20:07;;;;;;;67.28;43.63;;;;;;;10.06;96.56;100766.50;5038064;28;20040;-81
2022/03/16 03:22:33;;;;;;;64.97;43.40;;;;;;;10.05;96.51;100770.09;5034212;28;20029;-81
2022/03/16 03:24:58;;;;;;;66.65;42.40;;;;;;;10.03;96.75;100773.75;5030521;28;20037;-80
2022/03/16 03:27:24;;;;;;;70.50;43.47;;;;;;;9.99;96.68;100770.50;5022041;28;20071;-81
2022/03/16 03:29:50;;;;;;;69.85;43.85;;;;;;;9.95;97.07;100779.59;5030335;28;20033;-81
2022/03/16 03:32:17;;;;;;;63.95;42.58;;;;;;;9.91;96.89;100772.84;5012476;28;20044;-82
2022/03/16 03:34:47;;;;;;;69.35;43.13;;;;;;;9.87;97.27;100771.38;5020650;28;20033;-81
2022/03/16 03:37:14;;;;;;;65.03;41.33;;;;;;;9.86;97.41;100769.69;5030630;28;20030;-80
2022/03/16 03:39:40;;;;;;;65.05;42.63;;;;;;;9.85;97.50;100753.03;5029970;28;20025;-80
2022/03/16 03:42:06;;;;;;;68.85;44.50;;;;;;;9.83;97.60;100751.47;5030364;28;20052;-81
2022/03/16 03:44:32;;;;;;;71.10;44.35;;;;;;;9.81;97.97;100756.00;5030070;28;20029;-81
2022/03/16 03:46:57;;;;;;;74.78;45.58;;;;;;;9.78;98.01;100758.84;5030462;28;20505;-79
2022/03/16 03:49:22;;;;;;;71.38;44.42;;;;;;;9.78;98.25;100745.66;5030324;28;20025;-81
2022/03/16 03:51:48;;;;;;;68.07;43.50;;;;;;;9.76;98.90;100752.84;5030129;28;20040;-80
2022/03/16 03:54:14;;;;;;;65.30;42.80;;;;;;;9.77;98.87;100749.28;5030158;28;20049;-80
2022/03/16 03:56:39;;;;;;;65.20;42.67;;;;;;;9.77;98.92;100741.38;5029595;28;20041;-80
2022/03/16 03:59:05;;;;;;;65.80;40.40;;;;;;;9.78;99.03;100741.22;5030386;28;20554;-81
2022/03/16 04:01:30;;;;;;;61.70;40.58;;;;;;;9.81;98.90;100745.47;5030024;28;20044;-81
2022/03/16 04:03:56;;;;;;;64.20;40.53;;;;;;;9.83;98.31;100743.56;5004528;28;20045;-81
2022/03/16 04:06:22;;;;;;;65.28;40.65;;;;;;;9.82;99.03;100741.88;5030386;28;20104;-81
2022/03/16 04:08:48;;;;;;;66.88;41.33;;;;;;;9.81;99.21;100745.47;5028791;28;20136;-79
2022/03/16 04:11:13;;;;;;;62.90;40.90;;;;;;;9.80;98.87;100743.75;5018767;28;20053;-79
2022/03/16 04:13:39;;;;;;;71.55;42.05;;;;;;;9.79;99.40;100740.28;5027699;28;20100;-80
2022/03/16 04:16:06;;;;;;;66.47;41.35;;;;;;;9.76;99.93;100751.06;5003467;28;20064;-80
2022/03/16 04:18:32;;;;;;;61.88;41.30;;;;;;;9.76;99.30;100752.84;5030492;28;20133;-80
2022/03/16 04:20:57;;;;;;;63.45;39.67;;;;;;;9.78;99.52;100745.66;5030506;28;20466;-81
2022/03/16 04:23:23;;;;;;;63.33;40.92;;;;;;;9.77;99.40;100749.28;5039877;28;20030;-80
2022/03/16 04:25:48;;;;;;;64.15;39.75;;;;;;;9.77;99.30;100746.63;5046950;28;20538;-79
2022/03/16 04:28:14;;;;;;;65.38;40.42;;;;;;;9.77;99.90;100744.00;5034587;28;20523;-81
2022/03/16 04:30:42;;;;;;;64.97;40.75;;;;;;;9.79;99.54;100745.56;5038606;28;20044;-80
2022/03/16 04:33:09;;;;;;;68.30;39.83;;;;;;;9.80;99.84;100738.50;5028004;28;20127;-79
2022/03/16 04:35:35;;;;;;;64.20;40.22;;;;;;;9.80;99.83;100738.50;5020338;28;20076;-80
2022/03/16 04:38:00;;;;;;;53.25;35.80;;;;;;;9.79;100.00;100737.66;5030327;28;20395;-80
2022/03/16 04:40:25;;;;;;;56.08;35.67;;;;;;;9.76;100.00;100735.25;5030069;28;20037;-80
2022/03/16 04:42:51;;;;;;;55.85;35.95;;;;;;;9.78;100.00;100733.31;5030213;28;20925;-80
2022/03/16 04:45:16;;;;;;;46.75;32.00;;;;;;;9.84;100.00;100735.53;5033298;28;20044;-80
2022/03/16 04:47:42;;;;;;;40.45;26.40;;;;;;;9.83;100.00;100738.28;5033227;28;20033;-79
2022/03/16 04:50:08;;;;;;;40.67;24.90;;;;;;;9.80;100.00;100730.59;5033409;28;20029;-80
2022/03/16 04:52:42;;;;;;;36.28;25.25;;;;;;;9.82;100.00;100726.91;5033297;28;20425;-80
2022/03/16 04:55:07;;;;;;;37.55;25.45;;;;;;;9.78;100.00;100721.94;5033382;28;20474;-80
2022/03/16 04:57:33;;;;;;;39.05;25.13;;;;;;;9.77;100.00;100715.00;5032927;28;20029;-80
2022/03/16 04:59:58;;;;;;;40.92;24.10;;;;;;;9.79;100.00;100711.28;5021323;28;20152;-81
2022/03/16 05:02:24;;;;;;;37.75;25.15;;;;;;;9.78;100.00;100708.75;5033497;28;20135;-80
2022/03/16 05:04:49;;;;;;;37.15;24.88;;;;;;;9.74;100.00;100708.16;5033312;28;20106;-81
2022/03/16 05:07:15;;;;;;;38.33;24.42;;;;;;;9.75;100.00;100717.75;5033238;28;20120;-79
2022/03/16 05:09:40;;;;;;;35.72;24.65;;;;;;;9.78;100.00;100712.22;5032960;28;20033;-81
2022/03/16 05:12:06;;;;;;;35.10;24.08;;;;;;;9.78;100.00;100714.88;5032974;28;20046;-81
2022/03/16 05:14:32;;;;;;;40.25;25.48;;;;;;;9.79;100.00;100715.72;5032405;28;20373;-81
2022/03/16 05:16:57;;;;;;;37.38;25.15;;;;;;;9.80;100.00;100712.97;5033178;28;20021;-82
2022/03/16 05:19:25;;;;;;;36.35;25.27;;;;;;;9.76;100.00;100715.94;5033510;28;20482;-81
2022/03/16 05:21:50;;;;;;;39.55;24.50;;;;;;;9.74;100.00;100712.56;5033179;28;20146;-80
2022/03/16 05:24:18;;;;;;;35.72;24.92;;;;;;;9.74;100.00;100707.28;5029201;28;20037;-80
2022/03/16 05:26:44;;;;;;;35.42;24.95;;;;;;;9.73;100.00;100717.00;5032827;28;20025;-81
2022/03/16 05:29:09;;;;;;;38.53;25.95;;;;;;;9.72;100.00;100709.22;5033823;28;20527;-81
2022/03/16 05:31:35;;;;;;;38.08;25.30;;;;;;;9.73;100.00;100705.59;5034138;28;20041;-82
2022/03/16 05:34:00;;;;;;;37.88;24.67;;;;;;;9.74;100.00;100707.28;5042429;28;20084;-80
2022/03/16 05:36:26;;;;;;;36.70;24.42;;;;;;;9.76;100.00;100710.69;5049956;28;20101;-81
2022/03/16 05:38:51;;;;;;;38.70;24.80;;;;;;;9.77;100.00;100707.09;5052330;28;20033;-80
2022/03/16 05:41:17;;;;;;;35.28;23.95;;;;;;;9.79;100.00;100711.28;5054527;28;20118;-79
2022/03/16 05:43:43;;;;;;;34.33;24.02;;;;;;;9.78;100.00;100709.59;5049394;28;20499;-81
2022/03/16 05:46:08;;;;;;;37.38;24.70;;;;;;;9.80;100.00;100712.97;5034177;28;20025;-79
2022/03/16 05:48:34;;;;;;;32.78;24.88;;;;;;;9.79;100.00;100716.56;5033972;28;20026;-80
2022/03/16 05:50:59;;;;;;;34.72;23.35;;;;;;;9.81;100.00;100719.94;5033500;28;20366;-82
2022/03/16 05:53:25;;;;;;;34.33;23.20;;;;;;;9.79;100.00;100721.00;5033614;28;20120;-81
2022/03/16 05:55:50;;;;;;;40.22;23.80;;;;;;;9.79;100.00;100721.00;5032719;28;20109;-82
2022/03/16 05:58:16;;;;;;;37.40;24.00;;;;;;;9.79;100.00;100721.00;5033034;28;20029;-81
2022/03/16 06:00:42;;;;;;;34.50;24.13;;;;;;;9.76;100.00;100710.69;5032943;28;20124;-81
2022/03/16 06:03:08;;;;;;;41.88;23.42;;;;;;;9.76;100.00;100710.69;5033357;28;20037;-81
2022/03/16 06:05:33;;;;;;;39.55;23.58;;;;;;;9.77;100.00;100707.94;5032483;28;20385;-80
2022/03/16 06:08:00;;;;;;;36.75;25.75;;;;;;;9.80;100.00;100714.78;5033128;28;20381;-81
2022/03/16 06:10:26;;;;;;;37.38;24.15;;;;;;;9.78;100.00;100714.03;5033283;28;20029;-82
2022/03/16 06:12:57;;;;;;;35.55;24.92;;;;;;;9.79;100.00;100721.00;5033534;28;20081;-83
2022/03/16 06:15:24;;;;;;;36.08;24.45;;;;;;;9.76;100.00;100721.22;5032498;28;20665;-77
2022/03/16 06:17:59;;;;;;;34.65;24.17;;;;;;;9.76;100.00;100716.78;5020942;28;20403;-81
2022/03/16 06:20:28;;;;;;;35.13;24.80;;;;;;;9.74;100.00;100728.38;5028650;28;20048;-79
2022/03/16 06:22:53;;;;;;;38.72;24.38;;;;;;;9.79;100.00;100731.53;5032636;28;20076;-81
2022/03/16 06:25:19;;;;;;;35.92;25.90;;;;;;;9.81;100.00;100724.38;5032295;28;20045;-81
2022/03/16 06:27:46;;;;;;;34.88;24.40;;;;;;;9.84;100.00;100724.13;5033180;28;20053;-81
2022/03/16 06:30:12;;;;;;;36.80;26.02;;;;;;;9.85;100.00;100725.81;4336639;28;10000806;-80
2022/03/16 06:32:38;;;;;;;37.25;25.58;;;;;;;9.86;100.00;100732.78;5029957;28;20025;-80
2022/03/16 06:35:05;;;;;;;36.60;26.50;;;;;;;9.88;100.00;100730.91;5030561;28;20102;-81
2022/03/16 06:37:33;;;;;;;41.58;28.92;;;;;;;9.78;100.00;100724.56;5030298;28;20029;-82
2022/03/16 06:39:59;;;;;;;41.70;27.80;;;;;;;9.71;100.00;100720.72;5030925;28;20496;-77
2022/03/16 06:42:25;;;;;;;44.88;28.35;;;;;;;9.72;100.00;100725.03;5029684;28;20088;-81
2022/03/16 06:44:50;;;;;;;43.55;28.13;;;;;;;9.75;100.00;100724.81;5026607;28;20029;-77
2022/03/16 06:47:17;;;;;;;45.95;29.27;;;;;;;9.77;100.00;100722.91;5030430;28;20033;-79
2022/03/16 06:49:43;;;;;;;46.47;30.58;;;;;;;9.80;100.00;100718.25;5020153;28;20026;-80
2022/03/16 06:52:08;;;;;;;48.47;30.80;;;;;;;9.83;100.00;100722.47;5029597;28;20071;-78
2022/03/16 06:54:34;;;;;;;47.25;31.90;;;;;;;9.83;100.00;100719.84;5031236;28;20033;-79
2022/03/16 06:56:59;;;;;;;50.05;33.20;;;;;;;9.83;100.00;100719.84;5034305;28;20042;-78
2022/03/16 06:59:25;;;;;;;54.08;33.55;;;;;;;9.82;100.00;100726.91;5041921;28;20025;-77
2022/03/16 07:01:50;;;;;;;50.00;33.80;;;;;;;9.78;100.00;100724.56;4693086;28;10000242;-76
2022/03/16 07:04:17;;;;;;;54.15;34.65;;;;;;;9.80;100.00;100727.94;5045603;28;20064;-77
2022/03/16 07:06:42;;;;;;;55.65;36.50;;;;;;;9.83;100.00;100730.38;5028247;28;20029;-75
2022/03/16 07:09:08;;;;;;;57.58;36.67;;;;;;;9.85;100.00;100725.81;5031146;28;20034;-77
2022/03/16 07:11:33;;;;;;;60.67;37.95;;;;;;;9.88;100.00;100730.91;5030849;28;20037;-77
2022/03/16 07:16:43;;;;;;;60.83;35.15;;;;;;;9.92;100.00;100731.50;5030142;28;20710;-78
2022/03/16 07:19:08;;;;;;;52.78;35.30;;;;;;;9.88;100.00;100738.81;5030902;28;20037;-79
2022/03/16 07:21:34;;;;;;;55.35;34.78;;;;;;;9.82;100.00;100733.97;5030088;28;20030;-79
2022/03/16 07:24:00;;;;;;;55.13;35.40;;;;;;;9.80;100.00;100735.84;5030871;28;20041;-77
2022/03/16 07:26:27;;;;;;;57.45;37.20;;;;;;;9.77;100.00;100736.94;5030046;28;20128;-79
2022/03/16 07:28:53;;;;;;;56.97;36.08;;;;;;;9.83;100.00;100740.94;5029667;28;20139;-78
2022/03/16 07:31:19;;;;;;;58.78;36.80;;;;;;;9.88;100.00;100730.03;5030398;28;20033;-78
2022/03/16 07:33:44;;;;;;;59.80;36.33;;;;;;;9.94;100.00;100733.09;5030227;28;20109;-78
2022/03/16 07:36:10;;;;;;;52.80;36.08;;;;;;;9.96;100.00;100735.59;5021592;28;20037;-78
2022/03/16 07:38:35;;;;;;;57.83;35.95;;;;;;;9.97;100.00;100738.13;5030406;28;20042;-76
2022/03/16 07:41:02;;;;;;;56.25;36.78;;;;;;;9.94;100.00;100741.00;5029528;28;20466;-77
2022/03/16 07:43:29;;;;;;;56.28;36.63;;;;;;;9.92;100.00;100737.63;5030093;28;20037;-79
2022/03/16 07:45:56;;;;;;;56.45;37.92;;;;;;;9.97;100.00;100734.66;5030013;28;20033;-77
2022/03/16 07:48:22;;;;;;;61.63;38.25;;;;;;;10.00;100.00;100737.94;5030097;28;20117;-77
2022/03/16 07:50:48;;;;;;;53.47;34.55;;;;;;;10.03;100.00;100727.13;5029950;28;20134;-78
2022/03/16 07:53:14;;;;;;;55.22;34.85;;;;;;;10.09;100.00;100726.69;5030173;28;20049;-78
2022/03/16 07:55:39;;;;;;;52.70;35.65;;;;;;;10.12;100.00;100729.13;5029863;28;20158;-78
2022/03/16 07:58:05;;;;;;;52.75;35.35;;;;;;;10.17;100.00;100721.75;5030398;28;20052;-78
2022/03/16 08:00:31;;;;;;;56.03;35.13;;;;;;;10.19;100.00;100724.28;5031279;28;20033;-76
2022/03/16 08:03:01;;;;;;;55.10;35.00;;;;;;;10.19;100.00;100724.28;5030246;28;20113;-77
2022/03/16 08:05:27;;;;;;;55.47;35.60;;;;;;;10.20;100.00;100721.50;5032332;28;20056;-77
2022/03/16 08:07:53;;;;;;;52.65;34.40;;;;;;;10.20;100.00;100721.50;5034007;28;20039;-77
2022/03/16 08:10:19;;;;;;;57.33;37.50;;;;;;;10.25;100.00;100729.09;5032501;28;20021;-78
2022/03/16 08:12:44;;;;;;;53.05;35.65;;;;;;;10.32;100.00;100729.47;5029517;28;20396;-78
2022/03/16 08:15:10;;;;;;;57.03;35.83;;;;;;;10.31;100.00;100728.63;5029064;28;20040;-77
2022/03/16 08:17:35;;;;;;;56.50;35.38;;;;;;;10.31;100.00;100730.47;5031358;28;20457;-76
2022/03/16 08:20:01;;;;;;;52.80;33.30;;;;;;;10.35;100.00;100734.56;5034148;28;20033;-78
2022/03/16 08:22:30;;;;;;;50.03;33.42;;;;;;;10.37;100.00;100733.47;5035706;28;20462;-76
2022/03/16 08:24:58;;;;;;;51.78;35.58;;;;;;;10.41;100.00;100736.75;5037154;28;20064;-76
2022/03/16 08:27:25;;;;;;;53.38;36.22;;;;;;;10.43;100.00;100735.66;5037103;28;20651;-78
2022/03/16 08:29:51;;;;;;;53.75;32.70;;;;;;;10.37;100.00;100733.47;5037123;28;20029;-77
2022/03/16 08:32:18;;;;;;;54.53;34.63;;;;;;;10.32;100.00;100740.03;5030370;28;20117;-78
2022/03/16 08:34:45;;;;;;;54.75;34.75;;;;;;;10.27;100.00;100733.31;5034268;28;20036;-81
2022/03/16 08:37:10;;;;;;;48.22;33.38;;;;;;;10.31;100.00;100735.75;5033633;28;20386;-77
2022/03/16 08:39:37;;;;;;;54.30;34.97;;;;;;;10.38;100.00;100739.59;5033278;28;20033;-77
2022/03/16 08:42:04;;;;;;;53.80;35.97;;;;;;;10.45;100.00;100730.28;5033283;28;20041;-78
2022/03/16 08:44:31;;;;;;;49.25;33.10;;;;;;;10.46;100.00;100730.16;5022642;28;20422;-78
2022/03/16 08:46:57;;;;;;;49.72;33.40;;;;;;;10.49;100.00;100737.00;5033501;28;20036;-78
2022/03/16 08:49:23;;;;;;;53.15;35.00;;;;;;;10.56;100.00;100732.94;5033592;28;20394;-79
2022/03/16 08:51:48;;;;;;;54.33;34.03;;;;;;;10.47;100.00;100729.22;5033118;28;20030;-78
2022/03/16 08:54:14;;;;;;;57.90;35.20;;;;;;;10.53;100.00;100730.56;5032514;28;20099;-78
2022/03/16 08:56:40;;;;;;;50.95;35.03;;;;;;;10.67;100.00;100722.44;5032726;28;20026;-79
2022/03/16 08:59:06;;;;;;;51.58;33.95;;;;;;;10.72;100.00;100722.91;5023252;28;20041;-79
2022/03/16 09:01:32;;;;;;;50.25;33.17;;;;;;;10.78;100.00;100722.47;5019207;28;20375;-78
2022/03/16 09:03:57;;;;;;;52.58;34.08;;;;;;;10.78;100.00;100722.47;5032290;28;20057;-79
2022/03/16 09:06:23;;;;;;;50.72;35.15;;;;;;;10.84;100.00;100732.56;5032673;28;20021;-79
2022/03/16 09:08:48;;;;;;;57.42;34.42;;;;;;;10.90;100.00;100737.38;5040091;28;20028;-78
2022/03/16 09:11:14;;;;;;;53.95;35.67;;;;;;;10.98;100.00;100740.28;5051011;28;20021;-80
2022/03/16 09:13:39;;;;;;;51.40;34.13;;;;;;;11.04;100.00;100739.81;5050878;28;20088;-79
2022/03/16 09:16:05;;;;;;;51.05;34.42;;;;;;;11.10;100.00;100738.50;5044627;28;20041;-78
2022/03/16 09:18:31;;;;;;;52.75;35.28;;;;;;;11.12;100.00;100747.19;5039434;28;20064;-78
2022/03/16 09:20:57;;;;;;;54.53;34.33;;;;;;;11.19;100.00;100729.06;5033660;28;20045;-79
2022/03/16 09:23:22;;;;;;;51.65;34.17;;;;;;;11.05;100.00;100720.38;5033385;28;20029;-79
2022/03/16 09:25:48;;;;;;;48.88;33.20;;;;;;;11.08;100.00;100735.13;5032703;28;20516;-79
2022/03/16 09:28:14;;;;;;;53.47;34.88;;;;;;;11.11;100.00;100723.50;5032937;28;20087;-78
2022/03/16 09:30:39;;;;;;;51.88;35.20;;;;;;;11.13;100.00;100711.88;5032004;28;20037;-79
2022/03/16 09:33:05;;;;;;;52.80;33.50;;;;;;;11.21;100.00;100713.91;5032067;28;20030;-78
2022/03/16 09:35:33;;;;;;;57.88;36.65;;;;;;;11.32;100.00;100716.56;5030009;28;20121;-79
2022/03/16 09:37:58;;;;;;;54.67;34.88;;;;;;;11.31;100.00;100715.72;5030764;28;20107;-77
2022/03/16 09:40:24;;;;;;;51.08;35.17;;;;;;;11.31;100.00;100714.91;5031497;28;20774;-77
2022/03/16 09:42:52;;;;;;;51.63;34.75;;;;;;;11.32;100.00;100711.28;5031889;28;20073;-78
2022/03/16 09:45:19;;;;;;;53.22;35.20;;;;;;;11.35;100.00;100711.03;5027549;28;20438;-78
2022/03/16 09:47:49;;;;;;;52.55;35.20;;;;;;;11.46;100.00;100703.13;5030729;28;20025;-76
2022/03/16 09:50:19;;;;;;;55.40;35.78;;;;;;;11.50;100.00;100704.53;5030800;28;20121;-75
2022/03/16 09:52:46;;;;;;;50.85;34.50;;;;;;;11.55;100.00;100702.38;5021559;28;20041;-76
2022/03/16 09:55:13;;;;;;;49.15;34.38;;;;;;;11.58;100.00;100696.88;5031060;28;20116;-75
2022/03/16 09:57:39;;;;;;;52.55;34.53;;;;;;;11.64;100.00;100698.19;5031710;28;20080;-78
2022/03/16 10:00:06;;;;;;;53.70;36.60;;;;;;;11.63;100.00;100697.34;5031563;28;20060;-75
2022/03/16 10:02:31;;;;;;;55.20;36.25;;;;;;;11.58;100.00;100690.72;5031074;28;20381;-75
2022/03/16 10:04:59;;;;;;;54.03;34.63;;;;;;;11.61;100.00;100696.59;5030161;28;20061;-76
2022/03/16 10:07:29;;;;;;;51.28;34.22;;;;;;;11.64;100.00;100701.66;5029958;28;20040;-75
2022/03/16 10:15:23;;;;;;;54.55;35.25;;;;;;;11.62;100.00;100684.22;5029921;28;20033;-76
2022/03/16 10:17:56;;;;;;;49.58;34.28;;;;;;;11.58;100.00;100683.66;5015985;28;20132;-78
2022/03/16 10:20:33;;;;;;;50.22;33.30;;;;;;;11.58;100.00;100686.28;5030358;28;20031;-76
2022/03/16 10:23:02;;;;;;;54.20;34.88;;;;;;;11.64;100.00;100680.50;5030896;28;20530;-75
2022/03/16 10:25:33;;;;;;;51.58;33.63;;;;;;;11.70;100.00;100680.03;5029788;28;20492;-74
2022/03/16 10:28:10;;;;;;;54.58;34.17;;;;;;;11.72;100.00;100678.09;5029720;28;20037;-76
2022/03/16 10:30:48;;;;;;;51.22;33.85;;;;;;;11.79;100.00;100674.03;5029401;28;20470;-76
2022/03/16 10:33:16;;;;;;;48.70;31.65;;;;;;;11.85;100.00;100676.16;5029970;28;20036;-76
2022/03/16 10:36:00;;;;;;;44.38;31.73;;;;;;;11.90;100.00;100670.50;5028661;28;20038;-77
2022/03/16 10:38:26;;;;;;;42.40;28.25;;;;;;;11.91;100.00;100666.91;4992903;28;20044;-76
2022/03/16 10:40:55;;;;;;;42.63;30.13;;;;;;;11.79;100.00;100657.31;5028263;28;20017;-76
2022/03/16 10:49:05;;;;;;;41.42;27.70;;;;;;;11.92;100.00;100655.38;5029633;28;20167;-76
2022/03/16 10:51:32;;;;;;;40.03;28.88;;;;;;;11.96;100.00;100658.63;5030119;28;20052;-77
2022/03/16 10:54:00;;;;;;;43.22;28.67;;;;;;;11.99;99.83;100658.34;5035018;28;20064;-74
2022/03/16 10:56:27;;;;;;;45.22;29.17;;;;;;;12.04;99.76;100645.59;5034024;28;20030;-74
2022/03/16 10:58:54;;;;;;;41.63;28.25;;;;;;;12.04;99.88;100645.59;5038238;28;20068;-76
2022/03/16 11:01:22;;;;;;;40.10;28.05;;;;;;;12.10;99.47;100638.00;5039952;28;20029;-76
2022/03/16 11:03:49;;;;;;;46.83;28.17;;;;;;;12.03;100.00;100638.59;5027916;28;20029;-73
2022/03/16 11:06:21;;;;;;;42.70;28.33;;;;;;;11.87;100.00;100639.03;5028812;28;20116;-73
2022/03/16 11:08:48;;;;;;;40.78;26.80;;;;;;;11.90;100.00;100639.59;5027760;28;20646;-72
2022/03/16 11:13:58;;;;;;;37.67;26.67;;;;;;;12.01;100.00;100622.03;5029644;28;20113;-77
2022/03/16 11:16:24;;;;;;;39.28;26.08;;;;;;;12.05;100.00;100623.47;5011593;28;20459;-77
2022/03/16 11:18:51;;;;;;;37.22;24.92;;;;;;;12.10;100.00;100618.63;5028689;28;20076;-77
2022/03/16 11:21:24;;;;;;;37.97;26.20;;;;;;;12.14;100.00;100609.47;5027436;28;20029;-76